Albion, ME (04910)

2:32 AM EST on January 28, 2015 (GMT -0500)
China Lake | Change Station
CLOSE
Current Station
Personal Weather Station
Location: South China, ME
Elevation: 194 ft
Nearby Weather Stations

Elev 194 ft 44.46 °N, 69.51 °W | Updated 2 minutes ago

Snow
Snow
11.1 °F
Feels Like -7 °F
N
18.3
Wind Variable Wind from North
Gusts 20.6 mph

Today
High -- | Low -- °F
--% Chance of Precip.
Yesterday
High -- | Low -- °F
Precip. -- in
7:01 AM 4:40 PM
Waxing Gibbous, 62% visible
Pressure 29.62 in
Visibility 1.8 miles
Clouds Overcast 1300 ft
Windchill -7 °F
Dew Point 1 °F
Humidity 62%
Rainfall 0.00 in
Snow Depth Not available.
UV 0 out of 12
Pollen .10 out of 12
Air Quality Not available.
Flu Activity Not available.
METAR KWVL 280715Z 34018G25KT 1 3/4SM OVC013 M12/M12 A2962 RMK AO1

More Conditions Fewer Conditions

Pressure 29.62 in
Visibility 1.8 miles
Clouds Overcast 1300 ft
Windchill -7 °F
Dew Point 1 °F
Humidity 62%
Rainfall 0.00 in
Snow Depth Not available.
UV 0 out of 12
Pollen .10 out of 12
Air Quality Not available.
Flu Activity Not available.
METAR KWVL 280715Z 34018G25KT 1 3/4SM OVC013 M12/M12 A2962 RMK AO1

More Conditions Fewer Conditions

10-Day Weather Forecast

Almanac

Astronomy

Jan. 28, 2015 Rise Set
Actual Time
Civil Twilight
Nautical Twilight
Astronomical Twilight
Moon
Length of Visible Light
Length of Day
Tomorrow will be .
, % of the Moon is Illuminated

Today's Extremes

State Highs State Lows

Community

WunderPhotos

Upload Photos

1,791,117 photos uploaded!

WunderBlogs® & News

Nearby

Air Quality

  Air Quality AQ Index Pollutant
Not available.

Snow Depth

Station Depth Elevation

Earthquake Activity

City Distance Mag. Time & Date
Minimum magnitude displayed is 2.5.

Coastal Water Temperatures

Place Temperature

Nearby Weather Stations